^^
Station Historical Data
Daily Summary for August 20, 2017 Units:  Both    English   Metric
« Previous Day
Next Day »
Daily Weekly Monthly Yearly Custom
  High: Low: Average:
Temperature: 78.6 °F /  25.9 °C 41.7 °F /  5.4 °C 58.9 °F /  14.9 °C
Dew Point: 19.9 °F /  -6.7 °C 5.2 °F /  -14.9 °C 14.7 °F /  -9.6 °C
Humidity: 36% 6% 20%
Wind Speed: 8.1mph /  13km/h - 0.6mph /  1km/h
Wind Gust: 13.0mph /  20.9km/h - -
Wind- - WSW
Pressure: 30.44 in /  1030.7 hPa 30.31 in /  1026.3 hPa -
Precipitation: 0.00 in /  0 mm    
Historical Graphs
 
 
Tabular Data for August 20, 2017
Time Temperature Dew Point Pressure Wind Wind Speed Wind Gust Humidity Rainfall Rate (Hourly) solar Conditions
00:04 48.7 °F /  9.3 °C 13.5 °F /  -10.3 °C 30.37in /  1028.3hPa Calm     24% 0.00in /  0mm 0.0 W/m2
00:10 48.7 °F /  9.3 °C 13.5 °F /  -10.3 °C 30.38in /  1028.7hPa Calm     24% 0.00in /  0mm 0.0 W/m2
00:16 48.6 °F /  9.2 °C 13.5 °F /  -10.3 °C 30.37in /  1028.3hPa Calm     24% 0.00in /  0mm 0.0 W/m2
00:22 48.4 °F /  9.1 °C 14.2 °F /  -9.9 °C 30.37in /  1028.3hPa Calm     25% 0.00in /  0mm 0.0 W/m2
00:29 48.0 °F /  8.9 °C 13.8 °F /  -10.1 °C 30.37in /  1028.3hPa Calm     25% 0.00in /  0mm 0.0 W/m2
00:35 48.0 °F /  8.9 °C 13.8 °F /  -10.1 °C 30.37in /  1028.3hPa Calm     25% 0.00in /  0mm 0.0 W/m2
00:41 47.7 °F /  8.7 °C 13.5 °F /  -10.3 °C 30.37in /  1028.3hPa Calm     25% 0.00in /  0mm 0.0 W/m2
00:47 47.3 °F /  8.5 °C 13.3 °F /  -10.4 °C 30.37in /  1028.3hPa Calm     25% 0.00in /  0mm 0.0 W/m2
00:53 47.1 °F /  8.4 °C 14.0 °F /  -10 °C 30.37in /  1028.3hPa Calm   1.0mph /  1.6km/h 26% 0.00in /  0mm 0.0 W/m2
00:59 46.9 °F /  8.3 °C 13.8 °F /  -10.1 °C 30.37in /  1028.3hPa Calm     26% 0.00in /  0mm 0.0 W/m2
01:05 46.9 °F /  8.3 °C 13.8 °F /  -10.1 °C 30.36in /  1028hPa Calm   1.0mph /  1.6km/h 26% 0.00in /  0mm 0.0 W/m2
01:11 47.1 °F /  8.4 °C 14.0 °F /  -10 °C 30.36in /  1028hPa Calm     26% 0.00in /  0mm 0.0 W/m2
01:17 47.1 °F /  8.4 °C 14.0 °F /  -10 °C 30.36in /  1028hPa Calm     26% 0.00in /  0mm 0.0 W/m2
01:24 47.1 °F /  8.4 °C 14.0 °F /  -10 °C 30.36in /  1028hPa Calm     26% 0.00in /  0mm 0.0 W/m2
01:30 47.1 °F /  8.4 °C 14.0 °F /  -10 °C 30.36in /  1028hPa Calm     26% 0.00in /  0mm 0.0 W/m2
01:36 46.9 °F /  8.3 °C 13.8 °F /  -10.1 °C 30.36in /  1028hPa Calm     26% 0.00in /  0mm 0.0 W/m2
01:42 46.8 °F /  8.2 °C 13.6 °F /  -10.2 °C 30.36in /  1028hPa Calm   1.0mph /  1.6km/h 26% 0.00in /  0mm 0.0 W/m2
01:48 46.8 °F /  8.2 °C 13.6 °F /  -10.2 °C 30.36in /  1028hPa Calm     26% 0.00in /  0mm 0.0 W/m2
01:54 46.8 °F /  8.2 °C 13.6 °F /  -10.2 °C 30.35in /  1027.7hPa Calm     26% 0.00in /  0mm 0.0 W/m2
02:00 46.6 °F /  8.1 °C 14.4 °F /  -9.8 °C 30.35in /  1027.7hPa Calm     27% 0.00in /  0mm 0.0 W/m2
02:06 46.0 °F /  7.8 °C 14.0 °F /  -10 °C 30.35in /  1027.7hPa Calm     27% 0.00in /  0mm 0.0 W/m2
02:13 45.9 °F /  7.7 °C 13.8 °F /  -10.1 °C 30.35in /  1027.7hPa Calm     27% 0.00in /  0mm 0.0 W/m2
02:19 45.9 °F /  7.7 °C 13.8 °F /  -10.1 °C 30.36in /  1028hPa Calm     27% 0.00in /  0mm 0.0 W/m2
02:25 45.9 °F /  7.7 °C 13.8 °F /  -10.1 °C 30.35in /  1027.7hPa Calm     27% 0.00in /  0mm 0.0 W/m2
02:31 45.7 °F /  7.6 °C 13.6 °F /  -10.2 °C 30.35in /  1027.7hPa Calm     27% 0.00in /  0mm 0.0 W/m2
02:37 45.7 °F /  7.6 °C 14.4 °F /  -9.8 °C 30.35in /  1027.7hPa Calm     28% 0.00in /  0mm 0.0 W/m2
02:43 45.7 °F /  7.6 °C 14.4 °F /  -9.8 °C 30.35in /  1027.7hPa Calm     28% 0.00in /  0mm 0.0 W/m2
02:49 45.7 °F /  7.6 °C 14.4 °F /  -9.8 °C 30.35in /  1027.7hPa Calm     28% 0.00in /  0mm 0.0 W/m2
02:55 45.5 °F /  7.5 °C 14.4 °F /  -9.8 °C 30.35in /  1027.7hPa Calm     28% 0.00in /  0mm 0.0 W/m2
03:01 45.3 °F /  7.4 °C 13.3 °F /  -10.4 °C 30.35in /  1027.7hPa Calm     27% 0.00in /  0mm 0.0 W/m2
03:07 45.3 °F /  7.4 °C 14.2 °F /  -9.9 °C 30.35in /  1027.7hPa Calm     28% 0.00in /  0mm 0.0 W/m2
03:14 45.3 °F /  7.4 °C 14.2 °F /  -9.9 °C 30.35in /  1027.7hPa Calm     28% 0.00in /  0mm 0.0 W/m2
03:20 45.3 °F /  7.4 °C 14.2 °F /  -9.9 °C 30.35in /  1027.7hPa Calm     28% 0.00in /  0mm 0.0 W/m2
03:26 45.3 °F /  7.4 °C 14.2 °F /  -9.9 °C 30.35in /  1027.7hPa Calm     28% 0.00in /  0mm 0.0 W/m2
03:32 45.3 °F /  7.4 °C 14.2 °F /  -9.9 °C 30.35in /  1027.7hPa Calm     28% 0.00in /  0mm 0.0 W/m2
03:38 45.1 °F /  7.3 °C 14.0 °F /  -10 °C 30.35in /  1027.7hPa Calm     28% 0.00in /  0mm 0.0 W/m2
03:44 45.0 °F /  7.2 °C 14.5 °F /  -9.7 °C 30.35in /  1027.7hPa Calm     29% 0.00in /  0mm 0.0 W/m2
03:50 44.8 °F /  7.1 °C 14.5 °F /  -9.7 °C 30.35in /  1027.7hPa Calm     29% 0.00in /  0mm 0.0 W/m2
03:57 44.4 °F /  6.9 °C 14.2 °F /  -9.9 °C 30.35in /  1027.7hPa Calm     29% 0.00in /  0mm 0.0 W/m2
04:03 44.4 °F /  6.9 °C 14.2 °F /  -9.9 °C 30.35in /  1027.7hPa Calm     29% 0.00in /  0mm 0.0 W/m2
04:09 45.0 °F /  7.2 °C 13.8 °F /  -10.1 °C 30.35in /  1027.7hPa Calm     28% 0.00in /  0mm 0.0 W/m2
04:17 45.1 °F /  7.3 °C 14.0 °F /  -10 °C 30.35in /  1027.7hPa Calm     28% 0.00in /  0mm 0.0 W/m2
04:25 45.1 °F /  7.3 °C 14.0 °F /  -10 °C 30.35in /  1027.7hPa Calm     28% 0.00in /  0mm 0.0 W/m2
04:31 45.1 °F /  7.3 °C 14.7 °F /  -9.6 °C 30.35in /  1027.7hPa Calm     29% 0.00in /  0mm 0.0 W/m2
04:36 45.0 °F /  7.2 °C 15.4 °F /  -9.2 °C 30.35in /  1027.7hPa Calm     30% 0.00in /  0mm 0.0 W/m2
04:42 44.2 °F /  6.8 °C 14.7 °F /  -9.6 °C 30.36in /  1028hPa Calm     30% 0.00in /  0mm 0.0 W/m2
04:48 43.5 °F /  6.4 °C 14.9 °F /  -9.5 °C 30.35in /  1027.7hPa Calm     31% 0.00in /  0mm 0.0 W/m2
04:54 43.2 °F /  6.2 °C 15.3 °F /  -9.3 °C 30.36in /  1028hPa Calm     32% 0.00in /  0mm 0.0 W/m2
05:00 42.4 °F /  5.8 °C 14.0 °F /  -10 °C 30.36in /  1028hPa Calm     31% 0.00in /  0mm 0.0 W/m2
05:06 42.3 °F /  5.7 °C 13.8 °F /  -10.1 °C 30.36in /  1028hPa Calm     31% 0.00in /  0mm 0.0 W/m2
05:12 42.1 °F /  5.6 °C 14.4 °F /  -9.8 °C 30.37in /  1028.3hPa Calm     32% 0.00in /  0mm 0.0 W/m2
05:19 41.9 °F /  5.5 °C 14.9 °F /  -9.5 °C 30.37in /  1028.3hPa Calm     33% 0.00in /  0mm 0.0 W/m2
05:25 41.7 °F /  5.4 °C 14.7 °F /  -9.6 °C 30.37in /  1028.3hPa Calm     33% 0.00in /  0mm 0.0 W/m2
05:31 42.1 °F /  5.6 °C 14.4 °F /  -9.8 °C 30.37in /  1028.3hPa Calm   1.0mph /  1.6km/h 32% 0.00in /  0mm 0.0 W/m2
05:37 42.3 °F /  5.7 °C 14.5 °F /  -9.7 °C 30.37in /  1028.3hPa Calm     32% 0.00in /  0mm 0.0 W/m2
05:43 42.6 °F /  5.9 °C 14.0 °F /  -10 °C 30.38in /  1028.7hPa ESE 0.9mph /  1.4km/h 1.0mph /  1.6km/h 31% 0.00in /  0mm 0.0 W/m2
05:49 43.2 °F /  6.2 °C 14.5 °F /  -9.7 °C 30.38in /  1028.7hPa Calm   3.0mph /  4.8km/h 31% 0.00in /  0mm 0.0 W/m2
05:55 43.3 °F /  6.3 °C 14.0 °F /  -10 °C 30.38in /  1028.7hPa Calm   4.0mph /  6.4km/h 30% 0.00in /  0mm 0.0 W/m2
06:02 43.5 °F /  6.4 °C 14.2 °F /  -9.9 °C 30.39in /  1029hPa NE 0.9mph /  1.4km/h 5.0mph /  8km/h 30% 0.00in /  0mm 0.0 W/m2
06:08 43.9 °F /  6.6 °C 14.4 °F /  -9.8 °C 30.39in /  1029hPa Calm   2.0mph /  3.2km/h 30% 0.00in /  0mm 0.0 W/m2
06:14 44.1 °F /  6.7 °C 14.5 °F /  -9.7 °C 30.40in /  1029.3hPa Calm   1.0mph /  1.6km/h 30% 0.00in /  0mm 0.0 W/m2
06:20 44.1 °F /  6.7 °C 14.5 °F /  -9.7 °C 30.40in /  1029.3hPa Calm   1.0mph /  1.6km/h 30% 0.00in /  0mm 7.0 W/m2
06:26 44.1 °F /  6.7 °C 14.5 °F /  -9.7 °C 30.40in /  1029.3hPa Calm     30% 0.00in /  0mm 9.0 W/m2
06:32 44.1 °F /  6.7 °C 15.3 °F /  -9.3 °C 30.40in /  1029.3hPa Calm   1.0mph /  1.6km/h 31% 0.00in /  0mm 12.0 W/m2
06:38 43.5 °F /  6.4 °C 15.6 °F /  -9.1 °C 30.40in /  1029.3hPa Calm     32% 0.00in /  0mm 14.0 W/m2
06:46 43.3 °F /  6.3 °C 15.4 °F /  -9.2 °C 30.40in /  1029.3hPa Calm     32% 0.00in /  0mm 16.0 W/m2
06:56 42.8 °F /  6 °C 15.6 °F /  -9.1 °C 30.41in /  1029.7hPa Calm     33% 0.00in /  0mm 19.0 W/m2
07:01 42.6 °F /  5.9 °C 16.2 °F /  -8.8 °C 30.41in /  1029.7hPa Calm     34% 0.00in /  0mm 21.0 W/m2
07:07 42.4 °F /  5.8 °C 16.0 °F /  -8.9 °C 30.41in /  1029.7hPa Calm     34% 0.00in /  0mm 23.0 W/m2
07:13 42.4 °F /  5.8 °C 16.0 °F /  -8.9 °C 30.41in /  1029.7hPa Calm     34% 0.00in /  0mm 25.0 W/m2
07:19 42.6 °F /  5.9 °C 16.2 °F /  -8.8 °C 30.41in /  1029.7hPa Calm     34% 0.00in /  0mm 26.0 W/m2
07:25 43.2 °F /  6.2 °C 17.4 °F /  -8.1 °C 30.42in /  1030hPa Calm     35% 0.00in /  0mm 26.0 W/m2
07:32 43.5 °F /  6.4 °C 18.3 °F /  -7.6 °C 30.42in /  1030hPa Calm     36% 0.00in /  0mm 28.0 W/m2
07:38 44.2 °F /  6.8 °C 18.3 °F /  -7.6 °C 30.42in /  1030hPa Calm     35% 0.00in /  0mm 33.0 W/m2
07:44 45.1 °F /  7.3 °C 18.5 °F /  -7.5 °C 30.42in /  1030hPa Calm     34% 0.00in /  0mm 32.0 W/m2
07:50 46.2 °F /  7.9 °C 18.7 °F /  -7.4 °C 30.43in /  1030.4hPa Calm     33% 0.00in /  0mm 32.0 W/m2
07:56 47.1 °F /  8.4 °C 18.0 °F /  -7.8 °C 30.42in /  1030hPa Calm     31% 0.00in /  0mm 32.0 W/m2
08:02 47.8 °F /  8.8 °C 18.0 °F /  -7.8 °C 30.42in /  1030hPa Calm     30% 0.00in /  0mm 33.0 W/m2
08:09 48.7 °F /  9.3 °C 17.1 °F /  -8.3 °C 30.42in /  1030hPa Calm     28% 0.00in /  0mm 33.0 W/m2
08:15 49.8 °F /  9.9 °C 16.3 °F /  -8.7 °C 30.43in /  1030.4hPa Calm     26% 0.00in /  0mm 35.0 W/m2
08:21 51.6 °F /  10.9 °C 16.9 °F /  -8.4 °C 30.43in /  1030.4hPa Calm   2.0mph /  3.2km/h 25% 0.00in /  0mm 37.0 W/m2
08:27 53.4 °F /  11.9 °C 17.6 °F /  -8 °C 30.43in /  1030.4hPa Calm   4.0mph /  6.4km/h 24% 0.00in /  0mm 39.0 W/m2
08:33 55.8 °F /  13.2 °C 18.5 °F /  -7.5 °C 30.44in /  1030.7hPa Calm     23% 0.00in /  0mm 121.0 W/m2
08:39 57.2 °F /  14 °C 17.6 °F /  -8 °C 30.43in /  1030.4hPa Calm     21% 0.00in /  0mm 492.0 W/m2
08:45 58.5 °F /  14.7 °C 17.6 °F /  -8 °C 30.44in /  1030.7hPa Calm     20% 0.00in /  0mm 510.0 W/m2
08:52 60.1 °F /  15.6 °C 17.6 °F /  -8 °C 30.44in /  1030.7hPa Calm     19% 0.00in /  0mm 529.0 W/m2
08:58 61.0 °F /  16.1 °C 17.2 °F /  -8.2 °C 30.44in /  1030.7hPa Calm   2.0mph /  3.2km/h 18% 0.00in /  0mm 548.0 W/m2
09:04 61.9 °F /  16.6 °C 18.0 °F /  -7.8 °C 30.44in /  1030.7hPa Calm     18% 0.00in /  0mm 564.0 W/m2
09:10 62.6 °F /  17 °C 17.2 °F /  -8.2 °C 30.44in /  1030.7hPa Calm     17% 0.00in /  0mm 584.0 W/m2
09:16 63.1 °F /  17.3 °C 17.6 °F /  -8 °C 30.44in /  1030.7hPa Calm   1.0mph /  1.6km/h 17% 0.00in /  0mm 598.0 W/m2
09:22 64.0 °F /  17.8 °C 16.9 °F /  -8.4 °C 30.44in /  1030.7hPa Calm   1.0mph /  1.6km/h 16% 0.00in /  0mm 615.0 W/m2
09:28 64.6 °F /  18.1 °C 17.4 °F /  -8.1 °C 30.44in /  1030.7hPa Calm     16% 0.00in /  0mm 629.0 W/m2
09:34 65.3 °F /  18.5 °C 18.0 °F /  -7.8 °C 30.43in /  1030.4hPa Calm     16% 0.00in /  0mm 642.0 W/m2
09:40 66.0 °F /  18.9 °C 17.1 °F /  -8.3 °C 30.43in /  1030.4hPa Calm   2.0mph /  3.2km/h 15% 0.00in /  0mm 657.0 W/m2
09:47 66.2 °F /  19 °C 17.2 °F /  -8.2 °C 30.43in /  1030.4hPa Calm   6.0mph /  9.7km/h 15% 0.00in /  0mm 675.0 W/m2
09:53 66.7 °F /  19.3 °C 17.6 °F /  -8 °C 30.43in /  1030.4hPa Calm   7.0mph /  11.3km/h 15% 0.00in /  0mm 686.0 W/m2
09:59 67.5 °F /  19.7 °C 18.1 °F /  -7.7 °C 30.43in /  1030.4hPa Calm   2.0mph /  3.2km/h 15% 0.00in /  0mm 696.0 W/m2
10:05 68.2 °F /  20.1 °C 18.7 °F /  -7.4 °C 30.43in /  1030.4hPa Calm   3.0mph /  4.8km/h 15% 0.00in /  0mm 707.0 W/m2
10:11 68.7 °F /  20.4 °C 17.6 °F /  -8 °C 30.42in /  1030hPa Calm   4.0mph /  6.4km/h 14% 0.00in /  0mm 719.0 W/m2
10:17 69.4 °F /  20.8 °C 18.1 °F /  -7.7 °C 30.42in /  1030hPa NW 2.9mph /  4.7km/h 4.0mph /  6.4km/h 14% 0.00in /  0mm 737.0 W/m2
10:23 70.2 °F /  21.2 °C 18.7 °F /  -7.4 °C 30.42in /  1030hPa Calm   6.0mph /  9.7km/h 14% 0.00in /  0mm 751.0 W/m2
10:29 70.7 °F /  21.5 °C 19.2 °F /  -7.1 °C 30.42in /  1030hPa West 0.9mph /  1.4km/h 5.0mph /  8km/h 14% 0.00in /  0mm 758.0 W/m2
10:36 70.7 °F /  21.5 °C 17.4 °F /  -8.1 °C 30.42in /  1030hPa Calm   1.0mph /  1.6km/h 13% 0.00in /  0mm 768.0 W/m2
10:42 71.1 °F /  21.7 °C 17.8 °F /  -7.9 °C 30.42in /  1030hPa NW 2.0mph /  3.2km/h 8.0mph /  12.9km/h 13% 0.00in /  0mm 768.0 W/m2
10:48 71.6 °F /  22 °C 18.1 °F /  -7.7 °C 30.41in /  1029.7hPa Calm   6.0mph /  9.7km/h 13% 0.00in /  0mm 780.0 W/m2
10:54 72.0 °F /  22.2 °C 18.5 °F /  -7.5 °C 30.41in /  1029.7hPa NW 4.9mph /  7.9km/h 6.0mph /  9.7km/h 13% 0.00in /  0mm 789.0 W/m2
11:00 72.1 °F /  22.3 °C 16.7 °F /  -8.5 °C 30.41in /  1029.7hPa NNW 2.9mph /  4.7km/h 9.0mph /  14.5km/h 12% 0.00in /  0mm 796.0 W/m2
11:06 72.3 °F /  22.4 °C 18.7 °F /  -7.4 °C 30.40in /  1029.3hPa NW 2.0mph /  3.2km/h 9.0mph /  14.5km/h 13% 0.00in /  0mm 807.0 W/m2
11:12 72.1 °F /  22.3 °C 18.5 °F /  -7.5 °C 30.40in /  1029.3hPa NNE 2.9mph /  4.7km/h 6.0mph /  9.7km/h 13% 0.00in /  0mm 810.0 W/m2
11:19 72.7 °F /  22.6 °C 17.1 °F /  -8.3 °C 30.40in /  1029.3hPa NE 2.0mph /  3.2km/h 5.0mph /  8km/h 12% 0.00in /  0mm 814.0 W/m2
11:25 73.2 °F /  22.9 °C 19.4 °F /  -7 °C 30.40in /  1029.3hPa NNW 2.9mph /  4.7km/h 7.0mph /  11.3km/h 13% 0.00in /  0mm 816.0 W/m2
11:31 73.8 °F /  23.2 °C 19.8 °F /  -6.8 °C 30.40in /  1029.3hPa WNW 4.0mph /  6.4km/h 9.0mph /  14.5km/h 13% 0.00in /  0mm 817.0 W/m2
11:37 73.8 °F /  23.2 °C 18.0 °F /  -7.8 °C 30.39in /  1029hPa NW 2.0mph /  3.2km/h 6.0mph /  9.7km/h 12% 0.00in /  0mm 824.0 W/m2
11:43 73.9 °F /  23.3 °C 19.9 °F /  -6.7 °C 30.39in /  1029hPa North 6.0mph /  9.7km/h 6.0mph /  9.7km/h 13% 0.00in /  0mm 823.0 W/m2
11:49 74.1 °F /  23.4 °C 18.3 °F /  -7.6 °C 30.39in /  1029hPa West 6.0mph /  9.7km/h 8.0mph /  12.9km/h 12% 0.00in /  0mm 817.0 W/m2
11:55 74.1 °F /  23.4 °C 18.3 °F /  -7.6 °C 30.38in /  1028.7hPa WSW 2.0mph /  3.2km/h 8.0mph /  12.9km/h 12% 0.00in /  0mm 816.0 W/m2
12:02 73.4 °F /  23 °C 19.6 °F /  -6.9 °C 30.38in /  1028.7hPa WSW 0.9mph /  1.4km/h 5.0mph /  8km/h 13% 0.00in /  0mm 812.0 W/m2
12:08 73.6 °F /  23.1 °C 17.8 °F /  -7.9 °C 30.37in /  1028.3hPa Calm   4.0mph /  6.4km/h 12% 0.00in /  0mm 819.0 W/m2
12:14 73.9 °F /  23.3 °C 18.1 °F /  -7.7 °C 30.37in /  1028.3hPa Calm   8.0mph /  12.9km/h 12% 0.00in /  0mm 816.0 W/m2
12:22 75.4 °F /  24.1 °C 17.2 °F /  -8.2 °C 30.36in /  1028hPa West 2.0mph /  3.2km/h 2.0mph /  3.2km/h 11% 0.00in /  0mm 809.0 W/m2
12:28 75.7 °F /  24.3 °C 17.4 °F /  -8.1 °C 30.36in /  1028hPa Calm   4.0mph /  6.4km/h 11% 0.00in /  0mm 805.0 W/m2
12:34 76.3 °F /  24.6 °C 15.6 °F /  -9.1 °C 30.36in /  1028hPa Calm   4.0mph /  6.4km/h 10% 0.00in /  0mm 795.0 W/m2
12:40 76.5 °F /  24.7 °C 15.8 °F /  -9 °C 30.36in /  1028hPa North 2.9mph /  4.7km/h 7.0mph /  11.3km/h 10% 0.00in /  0mm 793.0 W/m2
12:47 76.5 °F /  24.7 °C 15.8 °F /  -9 °C 30.35in /  1027.7hPa Calm   9.0mph /  14.5km/h 10% 0.00in /  0mm 788.0 W/m2
12:53 76.8 °F /  24.9 °C 13.6 °F /  -10.2 °C 30.35in /  1027.7hPa WSW 2.0mph /  3.2km/h 8.0mph /  12.9km/h 9% 0.00in /  0mm 777.0 W/m2
12:59 77.2 °F /  25.1 °C 14.0 °F /  -10 °C 30.35in /  1027.7hPa WSW 2.9mph /  4.7km/h 13.0mph /  20.9km/h 9% 0.00in /  0mm 765.0 W/m2
13:05 76.8 °F /  24.9 °C 13.6 °F /  -10.2 °C 30.35in /  1027.7hPa WSW 8.1mph /  13km/h 8.1mph /  13km/h 9% 0.00in /  0mm 752.0 W/m2
13:11 76.5 °F /  24.7 °C 13.5 °F /  -10.3 °C 30.34in /  1027.3hPa Calm   2.0mph /  3.2km/h 9% 0.00in /  0mm 747.0 W/m2
13:17 76.6 °F /  24.8 °C 16.0 °F /  -8.9 °C 30.33in /  1027hPa Calm   7.0mph /  11.3km/h 10% 0.00in /  0mm 745.0 W/m2
13:23 77.4 °F /  25.2 °C 14.2 °F /  -9.9 °C 30.34in /  1027.3hPa Calm   2.0mph /  3.2km/h 9% 0.00in /  0mm 731.0 W/m2
13:29 77.7 °F /  25.4 °C 14.4 °F /  -9.8 °C 30.33in /  1027hPa Calm   2.0mph /  3.2km/h 9% 0.00in /  0mm 715.0 W/m2
13:36 78.1 °F /  25.6 °C 14.7 °F /  -9.6 °C 30.33in /  1027hPa Calm   5.0mph /  8km/h 9% 0.00in /  0mm 698.0 W/m2
13:42 77.7 °F /  25.4 °C 14.4 °F /  -9.8 °C 30.32in /  1026.6hPa West 2.9mph /  4.7km/h 3.0mph /  4.8km/h 9% 0.00in /  0mm 689.0 W/m2
13:48 77.7 °F /  25.4 °C 11.7 °F /  -11.3 °C 30.32in /  1026.6hPa SW 0.9mph /  1.4km/h 5.0mph /  8km/h 8% 0.00in /  0mm 679.0 W/m2
13:54 78.4 °F /  25.8 °C 12.2 °F /  -11 °C 30.32in /  1026.6hPa Calm   3.0mph /  4.8km/h 8% 0.00in /  0mm 668.0 W/m2
14:00 78.4 °F /  25.8 °C 12.2 °F /  -11 °C 30.32in /  1026.6hPa North 2.0mph /  3.2km/h 5.0mph /  8km/h 8% 0.00in /  0mm 649.0 W/m2
14:06 78.4 °F /  25.8 °C 9.3 °F /  -12.6 °C 30.32in /  1026.6hPa WSW 0.9mph /  1.4km/h 11.0mph /  17.7km/h 7% 0.00in /  0mm 640.0 W/m2
14:12 78.3 °F /  25.7 °C 12.2 °F /  -11 °C 30.32in /  1026.6hPa North 6.0mph /  9.7km/h 7.0mph /  11.3km/h 8% 0.00in /  0mm 622.0 W/m2
14:18 78.4 °F /  25.8 °C 9.3 °F /  -12.6 °C 30.31in /  1026.3hPa WSW 2.0mph /  3.2km/h 9.0mph /  14.5km/h 7% 0.00in /  0mm 601.0 W/m2
14:25 78.3 °F /  25.7 °C 12.2 °F /  -11 °C 30.31in /  1026.3hPa West 4.9mph /  7.9km/h 5.0mph /  8km/h 8% 0.00in /  0mm 585.0 W/m2
14:31 78.3 °F /  25.7 °C 12.2 °F /  -11 °C 30.31in /  1026.3hPa WSW 2.0mph /  3.2km/h 6.0mph /  9.7km/h 8% 0.00in /  0mm 571.0 W/m2
14:37 78.3 °F /  25.7 °C 12.2 °F /  -11 °C 30.31in /  1026.3hPa WSW 0.9mph /  1.4km/h 2.0mph /  3.2km/h 8% 0.00in /  0mm 545.0 W/m2
14:43 78.4 °F /  25.8 °C 9.3 °F /  -12.6 °C 30.31in /  1026.3hPa WNW 2.9mph /  4.7km/h 4.0mph /  6.4km/h 7% 0.00in /  0mm 527.0 W/m2
14:49 78.4 °F /  25.8 °C 9.3 °F /  -12.6 °C 30.31in /  1026.3hPa WSW 4.9mph /  7.9km/h 10.0mph /  16.1km/h 7% 0.00in /  0mm 517.0 W/m2
14:55 78.1 °F /  25.6 °C 9.0 °F /  -12.8 °C 30.31in /  1026.3hPa SSW 2.9mph /  4.7km/h 5.0mph /  8km/h 7% 0.00in /  0mm 506.0 W/m2
15:01 78.1 °F /  25.6 °C 9.0 °F /  -12.8 °C 30.31in /  1026.3hPa Calm   5.0mph /  8km/h 7% 0.00in /  0mm 482.0 W/m2
15:07 78.3 °F /  25.7 °C 9.1 °F /  -12.7 °C 30.31in /  1026.3hPa Calm   4.0mph /  6.4km/h 7% 0.00in /  0mm 459.0 W/m2
15:14 78.6 °F /  25.9 °C 9.3 °F /  -12.6 °C 30.31in /  1026.3hPa Calm   6.0mph /  9.7km/h 7% 0.00in /  0mm 443.0 W/m2
15:20 78.4 °F /  25.8 °C 9.3 °F /  -12.6 °C 30.31in /  1026.3hPa WSW 2.0mph /  3.2km/h 8.0mph /  12.9km/h 7% 0.00in /  0mm 422.0 W/m2
15:26 77.7 °F /  25.4 °C 8.8 °F /  -12.9 °C 30.32in /  1026.6hPa WSW 2.9mph /  4.7km/h 9.0mph /  14.5km/h 7% 0.00in /  0mm 406.0 W/m2
15:32 77.5 °F /  25.3 °C 8.6 °F /  -13 °C 30.31in /  1026.3hPa SSW 0.9mph /  1.4km/h 7.0mph /  11.3km/h 7% 0.00in /  0mm 385.0 W/m2
15:38 77.7 °F /  25.4 °C 8.8 °F /  -12.9 °C 30.32in /  1026.6hPa WSW 4.9mph /  7.9km/h 8.0mph /  12.9km/h 7% 0.00in /  0mm 360.0 W/m2
15:44 78.1 °F /  25.6 °C 5.5 °F /  -14.7 °C 30.32in /  1026.6hPa Calm   3.0mph /  4.8km/h 6% 0.00in /  0mm 338.0 W/m2
15:50 78.1 °F /  25.6 °C 9.0 °F /  -12.8 °C 30.32in /  1026.6hPa WNW 0.9mph /  1.4km/h 7.0mph /  11.3km/h 7% 0.00in /  0mm 318.0 W/m2
15:56 77.5 °F /  25.3 °C 5.2 °F /  -14.9 °C 30.32in /  1026.6hPa West 2.9mph /  4.7km/h 3.0mph /  4.8km/h 6% 0.00in /  0mm 297.0 W/m2
16:03 76.6 °F /  24.8 °C 7.9 °F /  -13.4 °C 30.31in /  1026.3hPa SSW 2.0mph /  3.2km/h 3.0mph /  4.8km/h 7% 0.00in /  0mm 237.0 W/m2
16:09 76.6 °F /  24.8 °C 7.9 °F /  -13.4 °C 30.32in /  1026.6hPa SW 4.0mph /  6.4km/h 8.0mph /  12.9km/h 7% 0.00in /  0mm 53.0 W/m2
16:15 76.5 °F /  24.7 °C 7.9 °F /  -13.4 °C 30.32in /  1026.6hPa West 2.9mph /  4.7km/h 7.0mph /  11.3km/h 7% 0.00in /  0mm 49.0 W/m2
16:21 76.3 °F /  24.6 °C 10.6 °F /  -11.9 °C 30.32in /  1026.6hPa West 2.0mph /  3.2km/h 8.0mph /  12.9km/h 8% 0.00in /  0mm 46.0 W/m2
16:27 75.9 °F /  24.4 °C 7.3 °F /  -13.7 °C 30.32in /  1026.6hPa West 2.0mph /  3.2km/h 6.0mph /  9.7km/h 7% 0.00in /  0mm 81.0 W/m2
16:33 75.7 °F /  24.3 °C 7.3 °F /  -13.7 °C 30.32in /  1026.6hPa WSW 4.0mph /  6.4km/h 5.0mph /  8km/h 7% 0.00in /  0mm 93.0 W/m2
16:39 75.6 °F /  24.2 °C 7.2 °F /  -13.8 °C 30.33in /  1027hPa WNW 0.9mph /  1.4km/h 3.0mph /  4.8km/h 7% 0.00in /  0mm 42.0 W/m2
16:45 75.4 °F /  24.1 °C 10.0 °F /  -12.2 °C 30.33in /  1027hPa Calm     8% 0.00in /  0mm 54.0 W/m2
16:52 75.0 °F /  23.9 °C 9.7 °F /  -12.4 °C 30.33in /  1027hPa SW 0.9mph /  1.4km/h 3.0mph /  4.8km/h 8% 0.00in /  0mm 35.0 W/m2
16:58 74.7 °F /  23.7 °C 12.0 °F /  -11.1 °C 30.33in /  1027hPa West 2.0mph /  3.2km/h 2.0mph /  3.2km/h 9% 0.00in /  0mm 33.0 W/m2
17:06 74.1 °F /  23.4 °C 11.7 °F /  -11.3 °C 30.33in /  1027hPa Calm   3.0mph /  4.8km/h 9% 0.00in /  0mm 30.0 W/m2
17:12 73.8 °F /  23.2 °C 11.5 °F /  -11.4 °C 30.34in /  1027.3hPa West 0.9mph /  1.4km/h 1.0mph /  1.6km/h 9% 0.00in /  0mm 21.0 W/m2
17:18 73.4 °F /  23 °C 11.1 °F /  -11.6 °C 30.34in /  1027.3hPa Calm   3.0mph /  4.8km/h 9% 0.00in /  0mm 14.0 W/m2
17:24 72.9 °F /  22.7 °C 10.8 °F /  -11.8 °C 30.34in /  1027.3hPa Calm   2.0mph /  3.2km/h 9% 0.00in /  0mm 11.0 W/m2
17:30 72.3 °F /  22.4 °C 12.7 °F /  -10.7 °C 30.34in /  1027.3hPa Calm   1.0mph /  1.6km/h 10% 0.00in /  0mm 7.0 W/m2
17:36 71.8 °F /  22.1 °C 12.2 °F /  -11 °C 30.34in /  1027.3hPa Calm     10% 0.00in /  0mm 0.0 W/m2
17:43 71.1 °F /  21.7 °C 13.8 °F /  -10.1 °C 30.34in /  1027.3hPa Calm     11% 0.00in /  0mm 0.0 W/m2
17:49 70.2 °F /  21.2 °C 15.1 °F /  -9.4 °C 30.34in /  1027.3hPa Calm     12% 0.00in /  0mm 0.0 W/m2
17:55 69.3 °F /  20.7 °C 16.3 °F /  -8.7 °C 30.34in /  1027.3hPa Calm     13% 0.00in /  0mm 0.0 W/m2
18:01 68.2 °F /  20.1 °C 15.4 °F /  -9.2 °C 30.34in /  1027.3hPa Calm     13% 0.00in /  0mm 0.0 W/m2
18:07 67.3 °F /  19.6 °C 16.5 °F /  -8.6 °C 30.35in /  1027.7hPa Calm     14% 0.00in /  0mm 0.0 W/m2
18:13 66.4 °F /  19.1 °C 17.2 °F /  -8.2 °C 30.35in /  1027.7hPa Calm     15% 0.00in /  0mm 0.0 W/m2
18:19 65.3 °F /  18.5 °C 16.5 °F /  -8.6 °C 30.35in /  1027.7hPa Calm     15% 0.00in /  0mm 0.0 W/m2
18:25 64.4 °F /  18 °C 15.8 °F /  -9 °C 30.35in /  1027.7hPa Calm     15% 0.00in /  0mm 0.0 W/m2
18:31 63.7 °F /  17.6 °C 16.7 °F /  -8.5 °C 30.35in /  1027.7hPa Calm     16% 0.00in /  0mm 0.0 W/m2
18:38 63.0 °F /  17.2 °C 16.0 °F /  -8.9 °C 30.35in /  1027.7hPa Calm     16% 0.00in /  0mm 0.0 W/m2
18:44 62.2 °F /  16.8 °C 15.4 °F /  -9.2 °C 30.35in /  1027.7hPa Calm     16% 0.00in /  0mm 0.0 W/m2
18:50 61.5 °F /  16.4 °C 16.3 °F /  -8.7 °C 30.36in /  1028hPa Calm     17% 0.00in /  0mm 0.0 W/m2
18:56 61.0 °F /  16.1 °C 15.8 °F /  -9 °C 30.36in /  1028hPa Calm     17% 0.00in /  0mm 0.0 W/m2
19:02 60.1 °F /  15.6 °C 15.1 °F /  -9.4 °C 30.37in /  1028.3hPa Calm     17% 0.00in /  0mm 0.0 W/m2
19:08 59.5 °F /  15.3 °C 17.2 °F /  -8.2 °C 30.37in /  1028.3hPa Calm     19% 0.00in /  0mm 0.0 W/m2
19:15 58.8 °F /  14.9 °C 16.7 °F /  -8.5 °C 30.37in /  1028.3hPa Calm     19% 0.00in /  0mm 0.0 W/m2
19:21 58.5 °F /  14.7 °C 16.3 °F /  -8.7 °C 30.37in /  1028.3hPa Calm     19% 0.00in /  0mm 0.0 W/m2
19:27 57.9 °F /  14.4 °C 17.1 °F /  -8.3 °C 30.37in /  1028.3hPa Calm     20% 0.00in /  0mm 0.0 W/m2
19:33 57.6 °F /  14.2 °C 18.0 °F /  -7.8 °C 30.37in /  1028.3hPa Calm     21% 0.00in /  0mm 0.0 W/m2
19:39 57.4 °F /  14.1 °C 16.7 °F /  -8.5 °C 30.38in /  1028.7hPa Calm     20% 0.00in /  0mm 0.0 W/m2
19:45 57.0 °F /  13.9 °C 17.4 °F /  -8.1 °C 30.38in /  1028.7hPa Calm     21% 0.00in /  0mm 0.0 W/m2
19:51 56.8 °F /  13.8 °C 17.2 °F /  -8.2 °C 30.38in /  1028.7hPa Calm     21% 0.00in /  0mm 0.0 W/m2
19:57 56.7 °F /  13.7 °C 17.2 °F /  -8.2 °C 30.38in /  1028.7hPa Calm     21% 0.00in /  0mm 0.0 W/m2
20:03 56.3 °F /  13.5 °C 16.9 °F /  -8.4 °C 30.39in /  1029hPa Calm     21% 0.00in /  0mm 0.0 W/m2
20:10 55.9 °F /  13.3 °C 16.5 °F /  -8.6 °C 30.39in /  1029hPa Calm     21% 0.00in /  0mm 0.0 W/m2
20:16 55.8 °F /  13.2 °C 17.4 °F /  -8.1 °C 30.39in /  1029hPa Calm     22% 0.00in /  0mm 0.0 W/m2
20:22 55.2 °F /  12.9 °C 17.1 °F /  -8.3 °C 30.39in /  1029hPa Calm     22% 0.00in /  0mm 0.0 W/m2
20:28 54.9 °F /  12.7 °C 17.8 °F /  -7.9 °C 30.39in /  1029hPa Calm     23% 0.00in /  0mm 0.0 W/m2
20:34 54.7 °F /  12.6 °C 16.5 °F /  -8.6 °C 30.39in /  1029hPa Calm     22% 0.00in /  0mm 0.0 W/m2
20:40 54.1 °F /  12.3 °C 16.2 °F /  -8.8 °C 30.39in /  1029hPa Calm     22% 0.00in /  0mm 0.0 W/m2
20:46 53.8 °F /  12.1 °C 15.8 °F /  -9 °C 30.40in /  1029.3hPa Calm     22% 0.00in /  0mm 0.0 W/m2
20:53 53.2 °F /  11.8 °C 16.3 °F /  -8.7 °C 30.40in /  1029.3hPa Calm     23% 0.00in /  0mm 0.0 W/m2
20:59 53.1 °F /  11.7 °C 16.2 °F /  -8.8 °C 30.40in /  1029.3hPa Calm     23% 0.00in /  0mm 0.0 W/m2
21:05 52.7 °F /  11.5 °C 16.0 °F /  -8.9 °C 30.40in /  1029.3hPa Calm     23% 0.00in /  0mm 0.0 W/m2
21:11 52.5 °F /  11.4 °C 15.8 °F /  -9 °C 30.40in /  1029.3hPa Calm     23% 0.00in /  0mm 0.0 W/m2
21:17 52.3 °F /  11.3 °C 14.5 °F /  -9.7 °C 30.40in /  1029.3hPa Calm     22% 0.00in /  0mm 0.0 W/m2
21:23 52.2 °F /  11.2 °C 14.4 °F /  -9.8 °C 30.40in /  1029.3hPa Calm     22% 0.00in /  0mm 0.0 W/m2
21:30 52.3 °F /  11.3 °C 14.5 °F /  -9.7 °C 30.40in /  1029.3hPa Calm     22% 0.00in /  0mm 0.0 W/m2
21:36 52.3 °F /  11.3 °C 14.5 °F /  -9.7 °C 30.40in /  1029.3hPa Calm   1.0mph /  1.6km/h 22% 0.00in /  0mm 0.0 W/m2
21:42 52.3 °F /  11.3 °C 14.5 °F /  -9.7 °C 30.41in /  1029.7hPa SE 2.9mph /  4.7km/h 3.0mph /  4.8km/h 22% 0.00in /  0mm 0.0 W/m2
21:48 52.3 °F /  11.3 °C 14.5 °F /  -9.7 °C 30.41in /  1029.7hPa Calm   1.0mph /  1.6km/h 22% 0.00in /  0mm 0.0 W/m2
21:54 52.3 °F /  11.3 °C 14.5 °F /  -9.7 °C 30.41in /  1029.7hPa Calm     22% 0.00in /  0mm 0.0 W/m2
22:00 52.3 °F /  11.3 °C 14.5 °F /  -9.7 °C 30.41in /  1029.7hPa Calm     22% 0.00in /  0mm 0.0 W/m2
22:06 52.3 °F /  11.3 °C 14.5 °F /  -9.7 °C 30.41in /  1029.7hPa Calm   1.0mph /  1.6km/h 22% 0.00in /  0mm 0.0 W/m2
22:13 52.3 °F /  11.3 °C 14.5 °F /  -9.7 °C 30.41in /  1029.7hPa Calm     22% 0.00in /  0mm 0.0 W/m2
22:19 52.3 °F /  11.3 °C 14.5 °F /  -9.7 °C 30.41in /  1029.7hPa Calm     22% 0.00in /  0mm 0.0 W/m2
22:25 52.5 °F /  11.4 °C 14.7 °F /  -9.6 °C 30.41in /  1029.7hPa Calm     22% 0.00in /  0mm 0.0 W/m2
22:31 52.5 °F /  11.4 °C 14.7 °F /  -9.6 °C 30.41in /  1029.7hPa Calm     22% 0.00in /  0mm 0.0 W/m2
22:37 52.5 °F /  11.4 °C 14.7 °F /  -9.6 °C 30.41in /  1029.7hPa Calm     22% 0.00in /  0mm 0.0 W/m2
22:43 52.3 °F /  11.3 °C 14.5 °F /  -9.7 °C 30.41in /  1029.7hPa Calm     22% 0.00in /  0mm 0.0 W/m2
22:49 52.3 °F /  11.3 °C 14.5 °F /  -9.7 °C 30.41in /  1029.7hPa Calm     22% 0.00in /  0mm 0.0 W/m2
22:55 52.2 °F /  11.2 °C 14.4 °F /  -9.8 °C 30.41in /  1029.7hPa Calm   1.0mph /  1.6km/h 22% 0.00in /  0mm 0.0 W/m2
23:01 52.2 °F /  11.2 °C 14.4 °F /  -9.8 °C 30.40in /  1029.3hPa East 2.0mph /  3.2km/h 2.0mph /  3.2km/h 22% 0.00in /  0mm 0.0 W/m2
23:07 52.0 °F /  11.1 °C 14.4 °F /  -9.8 °C 30.40in /  1029.3hPa Calm     22% 0.00in /  0mm 0.0 W/m2
23:13 51.4 °F /  10.8 °C 14.9 °F /  -9.5 °C 30.40in /  1029.3hPa Calm     23% 0.00in /  0mm 0.0 W/m2
23:19 51.1 °F /  10.6 °C 14.5 °F /  -9.7 °C 30.40in /  1029.3hPa Calm     23% 0.00in /  0mm 0.0 W/m2
23:25 50.5 °F /  10.3 °C 14.2 °F /  -9.9 °C 30.40in /  1029.3hPa Calm     23% 0.00in /  0mm 0.0 W/m2
23:31 50.0 °F /  10 °C 14.5 °F /  -9.7 °C 30.40in /  1029.3hPa Calm     24% 0.00in /  0mm 0.0 W/m2
23:37 49.6 °F /  9.8 °C 14.4 °F /  -9.8 °C 30.40in /  1029.3hPa Calm   1.0mph /  1.6km/h 24% 0.00in /  0mm 0.0 W/m2
23:43 49.5 °F /  9.7 °C 14.2 °F /  -9.9 °C 30.40in /  1029.3hPa Calm     24% 0.00in /  0mm 0.0 W/m2
23:49 49.5 °F /  9.7 °C 14.2 °F /  -9.9 °C 30.40in /  1029.3hPa Calm   1.0mph /  1.6km/h 24% 0.00in /  0mm 0.0 W/m2
23:56 49.3 °F /  9.6 °C 14.0 °F /  -10 °C 30.40in /  1029.3hPa Calm     24% 0.00in /  0mm 0.0 W/m2
Olympia, Windhoek, Namibia
Compliments of Weather Underground - 3 mb